الصفحة الرئيسية
METAR-TAF:

METAR-TAF

مطار :

ستافروبول, روسيا

دائرة عرض: 45-20N, خط طول: 042-00E, ارتفاع: 453 متر

مراقبة الطقس الحالي

تاريخ ووقت الإصدار 26 دقيقة قبل الساعة 14:00UTC
ريح 8 عقدة من الشمال الغربي
درجة الحرارة 23°درجة مئوية
الرطوبة 61%
ضغط 1006 hPa
الرؤية 10 كم أو أكثر
غيوم متفرقة على ارتفاع 4000 قدم, مزنة ركامية.

METAR: URMT 241400Z 31004MPS 9999 SCT040CB 23/15 Q1006 R25/010070 NOSIG RMK QFE716

زمن: 18:26 (14:26 UTC)

توقعات

تاريخ ووقت الإصدار 1ساعة و 49 دقيقة قبل الساعة 12:37UTC
التوقعات صالحة من24 الساعة 13 UTC إلى 24 الساعة 21 UTC
ريح 6 عقدة من الشمال تتزايد حتى 21 عقدة
الرؤية 10 كم أو أكثر
غيوم مفككة على ارتفاع 3000 قدم
مؤقت
من 24 الساعة 13 UTC إلى 24 الساعة 18 UTC
ريح 12 عقدة من الشمال/الشمال الغربي تتزايد حتى 27 عقدة
الرؤية: 6000 متر
غيوم مفككة على ارتفاع 2000 قدم, مزنة ركامية.
عاصفة رعدية, مطر خفيف,

TAF: URMT 241237Z 2413/2421 36003G11MPS 9999 BKN030 TEMPO 2413/2418 34006G14MPS 6000 -TSRA BKN020CB

أرصاد الطقس والتوقعات من أكثر من 4000 مطار (تقارير الطقس للمطار METAR والتنبؤ بالطقس بالمطارTAF).

المحطات المتاحة هي النقط الصفراء والحمراء على الخريطة.

حرك المؤشر فوق النقطة لمعرفة اسم المحطة.

ثم انقر لمعرفة أرصاد وتوقعات الطقس.

لتغيير الخارطة: اضغط على الأزرار الخضراء مع رمز الصليب الأسود للتكبير. على الزر الأخضر مع شرطة للتصغير، أو على الأسهم الخضراء للخرائط المجاورة.


METAR-TAF: